AUA71B LOWW-HECA
Flight info
| Callsign | AUA71B |
|---|---|
| Flight time | N/A |
| Altitude | 37000 |
| Route | ARSIN DCT NALOX DCT OSDUK DCT SIVLA DCT AKIKA DCT MAVAR DCT BITLA DCT SIGFO DCT NEVRA DCT KUMBI L612 BLT A16 CVO |
| Aircraft | A321/M-SDE3FGHIRWY/LB1 |
Departure
| Time | 2026-04-20 13:49 |
|---|---|
| Airport | Vienna International Airport (LOWW) |
Arrival
| Time | N/A |
|---|---|
| Airport | Cairo International Airport (HECA) |
| Time | Latitude | Longitude | Altitude | Speed | Heading |
|---|---|---|---|---|---|
| 2026-04-20 13:34 | 48.11918 | 16.56716 | 611 ft | 0 kts | 207° |
| 2026-04-20 13:41 | 48.11925 | 16.56721 | 620 ft | 4 kts | 206° |
| 2026-04-20 13:41 | 48.11950 | 16.56736 | 618 ft | 4 kts | 195° |
| 2026-04-20 13:41 | 48.11975 | 16.56741 | 622 ft | 4 kts | 164° |
| 2026-04-20 13:41 | 48.11990 | 16.56728 | 625 ft | 0 kts | 116° |
| 2026-04-20 13:42 | 48.11990 | 16.56727 | 625 ft | 0 kts | 116° |
| 2026-04-20 13:43 | 48.11990 | 16.56728 | 625 ft | 0 kts | 116° |
| 2026-04-20 13:44 | 48.11982 | 16.56751 | 617 ft | 8 kts | 116° |
| 2026-04-20 13:44 | 48.11942 | 16.56876 | 614 ft | 15 kts | 116° |
| 2026-04-20 13:44 | 48.11897 | 16.57013 | 617 ft | 14 kts | 116° |
| 2026-04-20 13:44 | 48.11854 | 16.57142 | 617 ft | 14 kts | 116° |
| 2026-04-20 13:45 | 48.11830 | 16.57288 | 622 ft | 16 kts | 109° |
| 2026-04-20 13:45 | 48.11726 | 16.57382 | 618 ft | 20 kts | 164° |
| 2026-04-20 13:45 | 48.11599 | 16.57435 | 616 ft | 18 kts | 164° |
| 2026-04-20 13:45 | 48.11480 | 16.57448 | 609 ft | 17 kts | 198° |
| 2026-04-20 13:46 | 48.11377 | 16.57377 | 621 ft | 16 kts | 205° |
| 2026-04-20 13:46 | 48.11283 | 16.57311 | 619 ft | 14 kts | 205° |
| 2026-04-20 13:46 | 48.11199 | 16.57316 | 617 ft | 12 kts | 137° |
| 2026-04-20 13:46 | 48.11160 | 16.57420 | 625 ft | 11 kts | 116° |
| 2026-04-20 13:47 | 48.11130 | 16.57516 | 617 ft | 10 kts | 115° |
| 2026-04-20 13:47 | 48.11098 | 16.57613 | 611 ft | 11 kts | 123° |
| 2026-04-20 13:47 | 48.11023 | 16.57633 | 609 ft | 15 kts | 204° |
| 2026-04-20 13:47 | 48.10928 | 16.57543 | 615 ft | 14 kts | 239° |
| 2026-04-20 13:48 | 48.10950 | 16.57423 | 618 ft | 12 kts | 296° |
| 2026-04-20 13:48 | 48.11003 | 16.57259 | 618 ft | 35 kts | 295° |
| 2026-04-20 13:48 | 48.11217 | 16.56604 | 619 ft | 102 kts | 296° |
| 2026-04-20 13:48 | 48.11607 | 16.55411 | 620 ft | 151 kts | 296° |
| 2026-04-20 13:49 | 48.12102 | 16.53847 | 857 ft | 168 kts | 298° |
| 2026-04-20 13:49 | 48.12436 | 16.52223 | 1626 ft | 167 kts | 272° |
| 2026-04-20 13:49 | 48.11970 | 16.50549 | 1982 ft | 193 kts | 232° |
| 2026-04-20 13:49 | 48.10843 | 16.49253 | 2212 ft | 216 kts | 216° |
| 2026-04-20 13:50 | 48.09456 | 16.48078 | 2421 ft | 244 kts | 213° |
| 2026-04-20 13:50 | 48.07802 | 16.47105 | 2831 ft | 269 kts | 188° |
| 2026-04-20 13:50 | 48.05918 | 16.47463 | 3569 ft | 280 kts | 163° |
| 2026-04-20 13:50 | 48.04083 | 16.48489 | 4351 ft | 284 kts | 161° |
| 2026-04-20 13:51 | 48.02232 | 16.49549 | 5196 ft | 286 kts | 161° |
| 2026-04-20 13:51 | 48.00368 | 16.50619 | 6027 ft | 288 kts | 162° |
| 2026-04-20 13:51 | 47.98480 | 16.51698 | 6808 ft | 292 kts | 162° |
| 2026-04-20 13:51 | 47.96582 | 16.52780 | 7599 ft | 293 kts | 162° |
| 2026-04-20 13:52 | 47.94667 | 16.53869 | 8401 ft | 295 kts | 163° |
| 2026-04-20 13:52 | 47.92744 | 16.54964 | 9194 ft | 297 kts | 163° |
| 2026-04-20 13:52 | 47.90810 | 16.56066 | 9986 ft | 298 kts | 163° |
| 2026-04-20 13:52 | 47.88825 | 16.57191 | 10353 ft | 316 kts | 163° |
| 2026-04-20 13:53 | 47.86696 | 16.58387 | 10495 ft | 337 kts | 163° |
| 2026-04-20 13:53 | 47.84471 | 16.59645 | 10972 ft | 346 kts | 163° |
| 2026-04-20 13:53 | 47.82210 | 16.60937 | 11577 ft | 351 kts | 163° |
| 2026-04-20 13:53 | 47.79918 | 16.62246 | 12205 ft | 355 kts | 163° |
| 2026-04-20 13:54 | 47.77597 | 16.63568 | 12844 ft | 359 kts | 163° |
| 2026-04-20 13:54 | 47.75248 | 16.64908 | 13473 ft | 364 kts | 163° |
| 2026-04-20 13:54 | 47.72870 | 16.66258 | 14055 ft | 368 kts | 163° |
| 2026-04-20 13:54 | 47.70462 | 16.67621 | 14635 ft | 372 kts | 164° |
| 2026-04-20 13:55 | 47.68040 | 16.68986 | 15215 ft | 374 kts | 164° |
| 2026-04-20 13:55 | 47.65591 | 16.70362 | 15809 ft | 377 kts | 165° |
| 2026-04-20 13:55 | 47.63165 | 16.71725 | 16392 ft | 380 kts | 165° |
| 2026-04-20 13:55 | 47.60684 | 16.73115 | 16968 ft | 382 kts | 165° |
| 2026-04-20 13:56 | 47.58185 | 16.74490 | 17540 ft | 383 kts | 168° |
| 2026-04-20 13:56 | 47.55609 | 16.75401 | 18094 ft | 379 kts | 178° |
| 2026-04-20 13:56 | 47.52995 | 16.75747 | 18590 ft | 378 kts | 183° |
| 2026-04-20 13:56 | 47.50363 | 16.76002 | 19058 ft | 381 kts | 183° |
| 2026-04-20 13:57 | 47.47711 | 16.76252 | 19527 ft | 383 kts | 184° |
| 2026-04-20 13:57 | 47.45039 | 16.76503 | 19972 ft | 386 kts | 184° |
| 2026-04-20 13:57 | 47.42349 | 16.76750 | 20398 ft | 389 kts | 184° |
| 2026-04-20 13:57 | 47.39638 | 16.77005 | 20787 ft | 392 kts | 184° |
| 2026-04-20 13:58 | 47.36911 | 16.77268 | 21207 ft | 394 kts | 184° |
| 2026-04-20 13:58 | 47.34167 | 16.77532 | 21638 ft | 397 kts | 184° |
| 2026-04-20 13:58 | 47.31406 | 16.77798 | 22048 ft | 399 kts | 184° |
| 2026-04-20 13:58 | 47.28626 | 16.78066 | 22450 ft | 402 kts | 184° |
| 2026-04-20 13:59 | 47.25828 | 16.78334 | 22842 ft | 405 kts | 185° |
| 2026-04-20 13:59 | 47.23010 | 16.78600 | 23257 ft | 407 kts | 185° |
| 2026-04-20 13:59 | 47.20175 | 16.78869 | 23650 ft | 410 kts | 185° |
| 2026-04-20 13:59 | 47.17317 | 16.79138 | 23947 ft | 412 kts | 185° |
| 2026-04-20 14:00 | 47.14445 | 16.79410 | 24274 ft | 415 kts | 185° |
| 2026-04-20 14:00 | 47.11545 | 16.79681 | 24577 ft | 419 kts | 185° |
| 2026-04-20 14:00 | 47.08633 | 16.79951 | 24880 ft | 422 kts | 185° |
| 2026-04-20 14:00 | 47.05694 | 16.80230 | 25194 ft | 425 kts | 185° |
| 2026-04-20 14:01 | 47.02731 | 16.80515 | 25493 ft | 428 kts | 186° |
| 2026-04-20 14:01 | 46.99746 | 16.80799 | 25792 ft | 432 kts | 186° |
| 2026-04-20 14:01 | 46.96738 | 16.81084 | 26055 ft | 435 kts | 185° |
| 2026-04-20 14:01 | 46.93749 | 16.81368 | 26346 ft | 438 kts | 185° |
| 2026-04-20 14:02 | 46.90691 | 16.81866 | 26632 ft | 450 kts | 177° |
| 2026-04-20 14:02 | 46.87636 | 16.83137 | 26903 ft | 465 kts | 166° |
| 2026-04-20 14:02 | 46.84694 | 16.85252 | 27155 ft | 479 kts | 154° |
| 2026-04-20 14:02 | 46.81990 | 16.88200 | 27403 ft | 491 kts | 144° |
| 2026-04-20 14:03 | 46.79393 | 16.91466 | 27649 ft | 494 kts | 145° |
| 2026-04-20 14:03 | 46.76773 | 16.94739 | 27897 ft | 497 kts | 145° |
| 2026-04-20 14:03 | 46.74123 | 16.98021 | 28149 ft | 501 kts | 145° |
| 2026-04-20 14:03 | 46.71456 | 17.01307 | 28387 ft | 503 kts | 145° |
| 2026-04-20 14:04 | 46.68774 | 17.04606 | 28644 ft | 506 kts | 145° |
| 2026-04-20 14:04 | 46.66075 | 17.07924 | 28882 ft | 510 kts | 145° |
| 2026-04-20 14:04 | 46.63357 | 17.11260 | 29123 ft | 513 kts | 145° |
| 2026-04-20 14:04 | 46.60621 | 17.14615 | 29354 ft | 516 kts | 145° |
| 2026-04-20 14:05 | 46.57867 | 17.17995 | 29610 ft | 520 kts | 145° |
| 2026-04-20 14:05 | 46.55094 | 17.21396 | 29849 ft | 524 kts | 145° |
| 2026-04-20 14:05 | 46.52301 | 17.24819 | 30039 ft | 527 kts | 145° |
| 2026-04-20 14:05 | 46.49489 | 17.28262 | 30212 ft | 530 kts | 145° |
| 2026-04-20 14:06 | 46.46666 | 17.31720 | 30379 ft | 532 kts | 144° |
| 2026-04-20 14:06 | 46.43878 | 17.35135 | 30625 ft | 532 kts | 144° |
| 2026-04-20 14:06 | 46.41047 | 17.38594 | 30847 ft | 533 kts | 144° |
| 2026-04-20 14:06 | 46.38209 | 17.42053 | 31055 ft | 534 kts | 144° |
| 2026-04-20 14:07 | 46.35372 | 17.45507 | 31355 ft | 532 kts | 144° |
| 2026-04-20 14:07 | 46.32540 | 17.48951 | 31678 ft | 531 kts | 144° |
| 2026-04-20 14:07 | 46.29705 | 17.52391 | 31978 ft | 531 kts | 144° |
| 2026-04-20 14:07 | 46.26877 | 17.55810 | 32289 ft | 530 kts | 144° |
| 2026-04-20 14:08 | 46.24053 | 17.59217 | 32577 ft | 529 kts | 144° |
| 2026-04-20 14:08 | 46.21237 | 17.62614 | 32820 ft | 528 kts | 144° |
| 2026-04-20 14:08 | 46.18426 | 17.66005 | 33124 ft | 526 kts | 144° |
| 2026-04-20 14:08 | 46.15622 | 17.69387 | 33457 ft | 525 kts | 144° |
| 2026-04-20 14:09 | 46.12824 | 17.72759 | 33772 ft | 524 kts | 144° |
| 2026-04-20 14:09 | 46.10028 | 17.76121 | 34072 ft | 523 kts | 144° |
| 2026-04-20 14:09 | 46.07228 | 17.79481 | 34317 ft | 523 kts | 144° |
| 2026-04-20 14:09 | 46.04438 | 17.82822 | 34572 ft | 521 kts | 144° |
| 2026-04-20 14:10 | 46.01656 | 17.86145 | 34831 ft | 519 kts | 144° |
| 2026-04-20 14:10 | 45.98885 | 17.89446 | 35093 ft | 516 kts | 144° |
| 2026-04-20 14:10 | 45.96127 | 17.92729 | 35314 ft | 514 kts | 144° |
| 2026-04-20 14:10 | 45.93384 | 17.95994 | 35593 ft | 511 kts | 144° |
| 2026-04-20 14:11 | 45.90657 | 17.99238 | 35861 ft | 508 kts | 144° |
| 2026-04-20 14:11 | 45.87943 | 18.02464 | 36118 ft | 505 kts | 144° |
| 2026-04-20 14:11 | 45.85241 | 18.05672 | 36371 ft | 503 kts | 144° |
| 2026-04-20 14:11 | 45.82549 | 18.08855 | 36610 ft | 500 kts | 146° |
| 2026-04-20 14:12 | 45.79705 | 18.11652 | 36810 ft | 493 kts | 155° |
| 2026-04-20 14:12 | 45.76650 | 18.13805 | 36993 ft | 486 kts | 163° |
| 2026-04-20 14:12 | 45.70264 | 18.16461 | 37020 ft | 475 kts | 171° |
| 2026-04-20 14:13 | 45.63852 | 18.18786 | 37040 ft | 475 kts | 171° |
| 2026-04-20 14:13 | 45.57444 | 18.21117 | 37037 ft | 475 kts | 171° |
| 2026-04-20 14:14 | 45.51044 | 18.23454 | 37039 ft | 474 kts | 171° |
| 2026-04-20 14:14 | 45.44703 | 18.25764 | 37019 ft | 473 kts | 171° |
| 2026-04-20 14:15 | 45.38323 | 18.28056 | 37024 ft | 473 kts | 171° |
| 2026-04-20 14:15 | 45.31929 | 18.30353 | 37031 ft | 474 kts | 171° |
| 2026-04-20 14:16 | 45.25535 | 18.32654 | 37038 ft | 474 kts | 171° |
| 2026-04-20 14:16 | 45.19143 | 18.34959 | 37031 ft | 474 kts | 171° |
| 2026-04-20 14:17 | 45.12753 | 18.37250 | 37048 ft | 474 kts | 171° |
| 2026-04-20 14:17 | 45.06434 | 18.40013 | 37014 ft | 477 kts | 165° |
| 2026-04-20 14:18 | 45.00164 | 18.43133 | 37035 ft | 477 kts | 165° |
| 2026-04-20 14:18 | 44.93899 | 18.46247 | 37034 ft | 477 kts | 165° |
| 2026-04-20 14:19 | 44.87631 | 18.49350 | 37031 ft | 477 kts | 165° |
| 2026-04-20 14:19 | 44.81364 | 18.52444 | 37016 ft | 477 kts | 165° |
| 2026-04-20 14:20 | 44.75101 | 18.55532 | 37025 ft | 477 kts | 165° |
| 2026-04-20 14:20 | 44.68843 | 18.58612 | 37023 ft | 476 kts | 165° |
| 2026-04-20 14:21 | 44.62588 | 18.61670 | 36991 ft | 476 kts | 165° |
| 2026-04-20 14:21 | 44.56335 | 18.64726 | 37005 ft | 475 kts | 165° |
| 2026-04-20 14:22 | 44.50135 | 18.67752 | 37013 ft | 475 kts | 165° |
| 2026-04-20 14:22 | 44.43898 | 18.70792 | 37013 ft | 474 kts | 165° |
| 2026-04-20 14:23 | 44.37664 | 18.73820 | 36992 ft | 474 kts | 165° |
| 2026-04-20 14:23 | 44.31431 | 18.76845 | 36993 ft | 474 kts | 165° |
| 2026-04-20 14:24 | 44.25194 | 18.79864 | 36997 ft | 474 kts | 165° |
| 2026-04-20 14:24 | 44.18954 | 18.82869 | 36974 ft | 475 kts | 165° |
| 2026-04-20 14:25 | 44.12706 | 18.85877 | 36986 ft | 475 kts | 165° |
| 2026-04-20 14:25 | 44.06461 | 18.88879 | 36988 ft | 475 kts | 165° |
| 2026-04-20 14:26 | 44.00213 | 18.91875 | 36990 ft | 475 kts | 165° |
| 2026-04-20 14:26 | 43.93962 | 18.94865 | 36975 ft | 475 kts | 165° |
| 2026-04-20 14:27 | 43.87749 | 18.97827 | 36983 ft | 476 kts | 165° |
| 2026-04-20 14:27 | 43.81491 | 19.00802 | 36986 ft | 476 kts | 165° |
| 2026-04-20 14:28 | 43.75223 | 19.03780 | 36973 ft | 476 kts | 165° |
| 2026-04-20 14:28 | 43.68960 | 19.06756 | 36971 ft | 476 kts | 165° |
| 2026-04-20 14:29 | 43.62697 | 19.09723 | 36982 ft | 476 kts | 165° |
| 2026-04-20 14:29 | 43.56422 | 19.12678 | 36962 ft | 477 kts | 165° |